Time;durP1;ratioP1;P1;durP2;ratioP2;P2;SDS_P1;SDS_P2;PMS_P1;PMS_P2;Temp;Humidity;BMP_temperature;BMP_pressure;BME280_temperature;BME280_humidity;BME280_pressure;Samples;Min_cycle;Max_cycle;Signal;HPM_P1;HPM_P2
2022/10/24 00:01:33;;;;;;;11.75;6.30;;;14.60;99.90;;;;;;5074539;28;20329;-72
2022/10/24 00:03:58;;;;;;;7.72;5.53;;;14.60;99.90;;;;;;5064881;28;20223;-72
2022/10/24 00:06:24;;;;;;;8.43;6.22;;;14.60;99.90;;;;;;5058879;28;20214;-72
2022/10/24 00:08:50;;;;;;;6.43;4.93;;;14.60;99.90;;;;;;5075421;28;20215;-72
2022/10/24 00:11:20;;;;;;;11.10;5.32;;;14.60;99.90;;;;;;5063225;28;20222;-72
2022/10/24 00:13:45;;;;;;;8.38;5.90;;;14.60;99.90;;;;;;5053045;28;20218;-72
2022/10/24 00:16:11;;;;;;;6.97;5.47;;;14.60;99.90;;;;;;5079318;28;20211;-72
2022/10/24 00:18:38;;;;;;;6.78;5.03;;;14.50;99.90;;;;;;5070467;28;20199;-72
2022/10/24 00:21:05;;;;;;;7.97;5.68;;;14.50;99.90;;;;;;5072555;28;20684;-72
2022/10/24 00:23:30;;;;;;;12.07;6.53;;;14.40;99.90;;;;;;5059276;28;20269;-72
2022/10/24 00:26:00;;;;;;;10.88;5.90;;;14.40;99.90;;;;;;5076841;28;20297;-72
2022/10/24 00:28:26;;;;;;;7.15;5.38;;;14.30;99.90;;;;;;5073942;28;20207;-72
2022/10/24 00:30:52;;;;;;;8.02;5.60;;;14.30;99.90;;;;;;5070683;28;20211;-72
2022/10/24 00:33:18;;;;;;;9.95;6.00;;;14.30;99.90;;;;;;5072137;28;20204;-72
2022/10/24 00:35:43;;;;;;;9.00;6.07;;;14.30;99.90;;;;;;5074506;28;20346;-72
2022/10/24 00:38:09;;;;;;;9.75;6.25;;;14.30;99.90;;;;;;5071937;28;20766;-72
2022/10/24 00:40:34;;;;;;;9.23;5.95;;;14.20;99.90;;;;;;5073068;28;20283;-72
2022/10/24 00:43:00;;;;;;;9.52;6.07;;;14.30;99.90;;;;;;5055587;28;20254;-72
2022/10/24 00:45:40;;;;;;;8.57;6.05;;;14.20;99.90;;;;;;5073775;28;20894;-72
2022/10/24 00:48:29;;;;;;;11.38;6.68;;;14.20;99.90;;;;;;5071428;28;20782;-72
2022/10/24 00:51:00;;;;;;;9.57;6.47;;;14.30;99.90;;;;;;5051717;28;20214;-72
2022/10/24 00:53:27;;;;;;;10.45;7.00;;;14.30;99.90;;;;;;5074454;28;20237;-72
2022/10/24 00:55:56;;;;;;;11.65;7.28;;;14.20;99.90;;;;;;5071834;28;20170;-72
2022/10/24 00:58:25;;;;;;;8.77;6.13;;;14.20;99.90;;;;;;5073158;28;20209;-72
2022/10/24 01:00:51;;;;;;;10.60;6.45;;;14.20;99.90;;;;;;5074528;28;20210;-72
2022/10/24 01:03:17;;;;;;;12.05;6.97;;;14.20;99.90;;;;;;5073455;28;20212;-72
2022/10/24 01:06:12;;;;;;;9.40;6.40;;;14.30;99.90;;;;;;5056114;28;20584;-72
2022/10/24 01:08:57;;;;;;;9.70;7.47;;;14.20;99.90;;;;;;5074586;28;20179;-72
2022/10/24 01:12:02;;;;;;;9.60;6.25;;;14.20;99.90;;;;;;5070239;28;20229;-72
2022/10/24 01:14:28;;;;;;;11.35;6.10;;;14.20;99.90;;;;;;5040378;28;20228;-72
2022/10/24 01:17:05;;;;;;;8.65;6.45;;;14.20;99.90;;;;;;5076191;28;20206;-72
2022/10/24 01:19:49;;;;;;;12.93;6.40;;;14.10;99.90;;;;;;5072861;28;20266;-72
2022/10/24 01:22:20;;;;;;;8.73;6.20;;;14.20;99.90;;;;;;5074096;28;20210;-72
2022/10/24 01:25:14;;;;;;;8.55;5.82;;;14.20;99.90;;;;;;5076276;28;20219;-72
2022/10/24 01:28:14;;;;;;;10.90;6.30;;;14.20;99.90;;;;;;5068775;28;20226;-72
2022/10/24 01:30:44;;;;;;;9.27;6.10;;;14.20;99.90;;;;;;5050425;28;20238;-71
2022/10/24 01:33:20;;;;;;;9.70;6.57;;;14.30;99.90;;;;;;5069736;28;20241;-71
2022/10/24 01:35:55;;;;;;;10.20;7.00;;;14.20;99.90;;;;;;5071382;28;20218;-72
2022/10/24 01:38:58;;;;;;;12.65;6.28;;;14.20;99.90;;;;;;5069511;28;20203;-72
2022/10/24 01:41:27;;;;;;;12.52;6.00;;;14.20;99.90;;;;;;4927553;29;20304;-72
2022/10/24 01:44:01;;;;;;;9.40;6.13;;;14.30;99.90;;;;;;5049162;28;20585;-72
2022/10/24 01:46:30;;;;;;;11.63;6.03;;;14.20;99.90;;;;;;5072996;28;20291;-72
2022/10/24 01:49:04;;;;;;;8.60;6.00;;;14.20;99.90;;;;;;5077600;28;20294;-72
2022/10/24 01:51:32;;;;;;;10.68;7.00;;;14.10;99.90;;;;;;5079893;28;20219;-72
2022/10/24 01:53:58;;;;;;;11.03;6.00;;;14.20;99.90;;;;;;5077251;28;20592;-71
2022/10/24 01:56:25;;;;;;;9.95;6.25;;;14.10;99.90;;;;;;5074474;28;20179;-72
2022/10/24 01:58:50;;;;;;;7.60;5.78;;;14.10;99.90;;;;;;5070837;28;20214;-72
2022/10/24 02:01:21;;;;;;;8.20;6.35;;;14.10;99.90;;;;;;5079194;28;20255;-72
2022/10/24 02:03:54;;;;;;;8.63;5.93;;;14.10;99.90;;;;;;5056878;28;20301;-72
2022/10/24 02:06:27;;;;;;;8.40;6.10;;;14.10;99.90;;;;;;5058376;28;20305;-72
2022/10/24 02:08:58;;;;;;;10.20;6.22;;;14.10;99.90;;;;;;5078048;28;20215;-72
2022/10/24 02:11:24;;;;;;;9.30;6.47;;;14.00;99.90;;;;;;5074227;28;20242;-70
2022/10/24 02:14:05;;;;;;;22.92;16.50;;;14.00;99.90;;;;;;5082619;22;20741;-68
2022/10/24 02:16:31;;;;;;;12.15;6.25;;;14.00;99.90;;;;;;5066675;28;20765;-68
2022/10/24 02:18:59;;;;;;;8.70;6.20;;;14.00;99.90;;;;;;5069352;28;20297;-68
2022/10/24 02:21:57;;;;;;;10.77;5.35;;;14.00;99.90;;;;;;5067284;28;20299;-69
2022/10/24 02:24:30;;;;;;;9.52;5.78;;;14.00;99.90;;;;;;5061074;28;20211;-69
2022/10/24 02:27:01;;;;;;;9.90;5.40;;;14.00;99.90;;;;;;5061435;28;20606;-68
2022/10/24 02:29:37;;;;;;;10.43;6.15;;;13.90;99.90;;;;;;5063779;28;20183;-69
2022/10/24 02:32:07;;;;;;;8.25;5.22;;;14.00;99.90;;;;;;5060562;28;20763;-69
2022/10/24 02:34:34;;;;;;;8.77;5.45;;;13.90;99.90;;;;;;5062855;28;20221;-67
2022/10/24 02:37:01;;;;;;;6.68;5.18;;;13.90;99.90;;;;;;5063489;28;20258;-69
2022/10/24 02:39:28;;;;;;;7.45;5.22;;;13.90;99.90;;;;;;5052346;28;20242;-69
2022/10/24 02:41:56;;;;;;;6.63;4.90;;;13.90;99.90;;;;;;5062638;28;20297;-67
2022/10/24 02:44:23;;;;;;;7.07;4.85;;;13.90;99.90;;;;;;5044408;28;20199;-70
2022/10/24 02:46:52;;;;;;;9.25;4.95;;;13.90;99.90;;;;;;5061931;28;20215;-68
2022/10/24 02:49:17;;;;;;;7.57;4.60;;;13.90;99.90;;;;;;5059806;28;20210;-67
2022/10/24 02:51:45;;;;;;;7.85;5.65;;;13.90;99.90;;;;;;5047876;28;20211;-69
2022/10/24 02:54:11;;;;;;;13.25;6.10;;;13.90;99.90;;;;;;5057561;28;20214;-69
2022/10/24 02:56:42;;;;;;;7.30;5.00;;;13.90;99.90;;;;;;5051217;28;20232;-69
2022/10/24 02:59:07;;;;;;;8.23;5.70;;;13.80;99.90;;;;;;5059816;28;20241;-69
2022/10/24 03:01:33;;;;;;;11.95;5.57;;;13.80;99.90;;;;;;5062666;28;20215;-68
2022/10/24 03:03:58;;;;;;;9.48;5.78;;;13.80;99.90;;;;;;5059128;28;20219;-68
2022/10/24 03:06:24;;;;;;;10.80;5.43;;;13.80;99.90;;;;;;5059444;28;20212;-69
2022/10/24 03:08:49;;;;;;;9.25;5.78;;;13.80;99.90;;;;;;5061627;28;20206;-69
2022/10/24 03:11:15;;;;;;;9.70;4.60;;;13.80;99.90;;;;;;5060647;28;20176;-69
2022/10/24 03:13:41;;;;;;;8.50;5.50;;;13.80;99.90;;;;;;5060320;28;20214;-68
2022/10/24 03:16:07;;;;;;;10.27;5.40;;;13.70;99.90;;;;;;5049495;28;20199;-68
2022/10/24 03:18:32;;;;;;;8.43;4.85;;;13.70;99.90;;;;;;5062344;28;20211;-67
2022/10/24 03:20:58;;;;;;;8.38;5.05;;;13.70;99.90;;;;;;5059082;28;20203;-68
2022/10/24 03:23:27;;;;;;;7.60;5.30;;;13.70;99.90;;;;;;5062173;28;20202;-69
2022/10/24 03:25:54;;;;;;;10.90;5.53;;;13.70;99.90;;;;;;5064184;28;20716;-65
2022/10/24 03:28:19;;;;;;;9.67;5.10;;;13.70;99.90;;;;;;5046931;28;20214;-69
2022/10/24 03:30:45;;;;;;;6.13;4.80;;;13.70;99.90;;;;;;5059391;28;20207;-69
2022/10/24 03:33:11;;;;;;;7.63;4.60;;;13.70;99.90;;;;;;5058381;28;20284;-68
2022/10/24 03:35:37;;;;;;;7.60;4.43;;;13.60;99.90;;;;;;5062282;28;20183;-69
2022/10/24 03:38:02;;;;;;;6.33;4.53;;;13.60;99.90;;;;;;5059553;28;20176;-69
2022/10/24 03:40:28;;;;;;;8.82;5.03;;;13.60;99.90;;;;;;5058522;28;20211;-68
2022/10/24 03:42:54;;;;;;;8.83;5.30;;;13.60;99.90;;;;;;5050254;28;20256;-67
2022/10/24 03:45:20;;;;;;;8.60;4.70;;;13.60;99.90;;;;;;5046613;28;20215;-68
2022/10/24 03:47:45;;;;;;;7.63;4.67;;;13.60;99.90;;;;;;5059367;28;20640;-68
2022/10/24 03:50:11;;;;;;;8.55;4.65;;;13.60;99.90;;;;;;5058373;28;20258;-69
2022/10/24 03:52:36;;;;;;;7.88;4.70;;;13.60;99.90;;;;;;5062057;28;20203;-68
2022/10/24 03:55:02;;;;;;;8.35;4.47;;;13.60;99.90;;;;;;5048541;28;20262;-68
2022/10/24 03:57:28;;;;;;;7.70;4.70;;;13.60;99.90;;;;;;5050032;28;20211;-69
2022/10/24 03:59:53;;;;;;;5.33;3.90;;;13.60;99.90;;;;;;5060005;28;20252;-67
2022/10/24 04:02:19;;;;;;;9.15;4.82;;;13.50;99.90;;;;;;5046958;28;20164;-69
2022/10/24 04:04:44;;;;;;;7.10;4.80;;;13.60;99.90;;;;;;5059218;28;20294;-69
2022/10/24 04:07:10;;;;;;;6.43;4.05;;;13.50;99.90;;;;;;5057408;28;20643;-69
2022/10/24 04:09:35;;;;;;;5.65;3.75;;;13.50;99.90;;;;;;5060740;28;20207;-68
2022/10/24 04:12:01;;;;;;;7.00;3.92;;;13.50;99.90;;;;;;5058066;28;20208;-68
2022/10/24 04:14:26;;;;;;;7.57;4.20;;;13.50;99.90;;;;;;5058031;28;20207;-69
2022/10/24 04:16:52;;;;;;;5.45;3.67;;;13.50;99.90;;;;;;5061104;28;20174;-66
2022/10/24 04:19:18;;;;;;;7.40;4.20;;;13.50;99.90;;;;;;5059780;28;20210;-67
2022/10/24 04:21:44;;;;;;;7.57;4.17;;;13.50;99.90;;;;;;5064607;28;20235;-68
2022/10/24 04:24:10;;;;;;;5.32;3.38;;;13.50;99.90;;;;;;5062196;28;20314;-69
2022/10/24 04:26:36;;;;;;;6.97;4.10;;;13.50;99.90;;;;;;5055315;28;20290;-69
2022/10/24 04:29:02;;;;;;;7.97;4.03;;;13.40;99.90;;;;;;5058712;28;20255;-69
2022/10/24 04:31:28;;;;;;;5.80;3.67;;;13.40;99.90;;;;;;5061468;28;20215;-68
2022/10/24 04:33:53;;;;;;;7.18;4.15;;;13.50;99.90;;;;;;5061877;28;20298;-66
2022/10/24 04:36:19;;;;;;;8.93;4.10;;;13.40;99.90;;;;;;5048737;28;20586;-69
2022/10/24 04:38:45;;;;;;;7.37;4.07;;;13.40;99.90;;;;;;5062217;28;20298;-68
2022/10/24 04:41:11;;;;;;;7.65;4.60;;;13.50;99.90;;;;;;5054867;28;20278;-70
2022/10/24 04:43:36;;;;;;;5.07;4.33;;;13.50;99.90;;;;;;5059197;28;20208;-68
2022/10/24 04:46:02;;;;;;;8.57;4.25;;;13.50;99.90;;;;;;5048729;28;20306;-69
2022/10/24 04:48:28;;;;;;;9.90;4.13;;;13.50;99.90;;;;;;5057146;28;20286;-69
2022/10/24 04:50:54;;;;;;;5.63;4.07;;;13.50;99.90;;;;;;5057555;28;20676;-67
2022/10/24 04:53:19;;;;;;;7.77;4.10;;;13.50;99.90;;;;;;5057475;28;20721;-69
2022/10/24 04:55:45;;;;;;;5.53;3.80;;;13.50;99.90;;;;;;5061673;28;20215;-69
2022/10/24 04:58:10;;;;;;;9.57;4.03;;;13.50;99.90;;;;;;5057349;28;20701;-69
2022/10/24 05:00:36;;;;;;;14.60;4.67;;;13.50;99.90;;;;;;5060943;28;20202;-68
2022/10/24 05:03:02;;;;;;;7.33;4.43;;;13.50;99.90;;;;;;5048209;28;20714;-69
2022/10/24 05:05:28;;;;;;;4.80;3.30;;;13.50;99.90;;;;;;5061503;28;20200;-69
2022/10/24 05:07:53;;;;;;;7.78;4.00;;;13.50;99.90;;;;;;5060053;28;20175;-67
2022/10/24 05:10:19;;;;;;;8.57;4.03;;;13.50;99.90;;;;;;5061206;28;20223;-68
2022/10/24 05:12:44;;;;;;;7.47;4.20;;;13.50;99.90;;;;;;5045529;28;20701;-69
2022/10/24 05:15:13;;;;;;;7.07;3.83;;;13.50;99.90;;;;;;5043204;28;20291;-69
2022/10/24 05:17:38;;;;;;;5.88;4.07;;;13.50;99.90;;;;;;5043046;28;20175;-68
2022/10/24 05:20:04;;;;;;;7.72;4.07;;;13.50;99.90;;;;;;5060179;28;20263;-68
2022/10/24 05:22:30;;;;;;;7.87;4.00;;;13.50;99.90;;;;;;5053251;28;20217;-66
2022/10/24 05:24:55;;;;;;;9.30;4.47;;;13.50;99.90;;;;;;5061292;28;20206;-69
2022/10/24 05:27:23;;;;;;;5.85;3.90;;;13.50;99.90;;;;;;5049365;28;20210;-68
2022/10/24 05:29:55;;;;;;;5.83;4.13;;;13.50;99.90;;;;;;5064688;28;20312;-68
2022/10/24 05:32:22;;;;;;;7.43;4.60;;;13.50;99.90;;;;;;5058349;28;20245;-69
2022/10/24 05:34:48;;;;;;;8.18;4.60;;;13.50;99.90;;;;;;5050843;28;20210;-69
2022/10/24 05:37:13;;;;;;;7.20;4.15;;;13.50;99.90;;;;;;5065225;28;20778;-69
2022/10/24 05:39:39;;;;;;;4.35;3.78;;;13.50;99.90;;;;;;5062441;28;20238;-69
2022/10/24 05:42:05;;;;;;;5.63;4.47;;;13.50;99.90;;;;;;5062204;28;20215;-69
2022/10/24 05:44:31;;;;;;;9.20;4.22;;;13.50;99.90;;;;;;5066027;28;20235;-67
2022/10/24 05:46:56;;;;;;;9.02;4.45;;;13.50;99.90;;;;;;5050114;28;20562;-68
2022/10/24 05:49:22;;;;;;;8.25;4.32;;;13.50;99.90;;;;;;5060466;28;20254;-68
2022/10/24 05:51:47;;;;;;;7.53;4.47;;;13.50;99.90;;;;;;5063481;28;20627;-68
2022/10/24 05:54:13;;;;;;;9.23;4.60;;;13.50;99.90;;;;;;5061962;28;20854;-69
2022/10/24 05:56:38;;;;;;;8.53;4.47;;;13.50;99.90;;;;;;5051306;28;20536;-69
2022/10/24 05:59:04;;;;;;;7.87;4.73;;;13.50;99.90;;;;;;5042235;28;20172;-69
2022/10/24 06:01:30;;;;;;;7.37;4.17;;;13.50;99.90;;;;;;5045457;28;20218;-67
2022/10/24 06:03:56;;;;;;;10.23;3.97;;;13.50;99.90;;;;;;5060522;28;20250;-68
2022/10/24 06:06:22;;;;;;;11.18;4.10;;;13.60;99.90;;;;;;5060921;28;20731;-69
2022/10/24 06:08:48;;;;;;;5.75;4.18;;;13.60;99.90;;;;;;5064689;28;20230;-68
2022/10/24 06:11:14;;;;;;;6.25;4.30;;;13.70;99.90;;;;;;5062145;28;20211;-69
2022/10/24 06:13:39;;;;;;;13.63;4.20;;;13.70;99.90;;;;;;5064562;28;20226;-68
2022/10/24 06:16:05;;;;;;;9.97;4.20;;;13.80;99.90;;;;;;5043006;28;20350;-68
2022/10/24 06:18:31;;;;;;;10.05;4.22;;;13.80;99.90;;;;;;5042426;28;20218;-67
2022/10/24 06:21:02;;;;;;;6.07;4.05;;;13.90;99.90;;;;;;5062479;28;20212;-68
2022/10/24 06:23:28;;;;;;;8.60;4.28;;;13.90;99.90;;;;;;5059330;28;20188;-68
2022/10/24 06:25:54;;;;;;;8.25;4.15;;;14.00;99.90;;;;;;5042903;28;20681;-67
2022/10/24 06:28:20;;;;;;;7.75;4.15;;;14.00;99.90;;;;;;5044399;28;20349;-68
2022/10/24 06:30:48;;;;;;;7.97;4.25;;;14.10;99.90;;;;;;5060472;28;20713;-68
2022/10/24 06:33:14;;;;;;;5.63;3.80;;;14.10;99.90;;;;;;5058999;28;20200;-68
2022/10/24 06:35:39;;;;;;;10.77;4.32;;;14.10;99.90;;;;;;5063282;28;20562;-67
2022/10/24 06:38:05;;;;;;;4.93;3.88;;;14.10;99.90;;;;;;5045250;28;20312;-68
2022/10/24 06:40:30;;;;;;;13.30;4.50;;;14.20;99.90;;;;;;5060100;28;20216;-67
2022/10/24 06:42:56;;;;;;;8.23;3.80;;;14.10;99.90;;;;;;5062600;28;20315;-68
2022/10/24 06:45:22;;;;;;;6.50;4.55;;;14.20;99.90;;;;;;5044014;28;20213;-68
2022/10/24 06:47:49;;;;;;;10.80;4.47;;;14.30;99.90;;;;;;5048908;28;20212;-68
2022/10/24 06:50:14;;;;;;;6.70;4.72;;;14.20;99.90;;;;;;5059604;28;20234;-68
2022/10/24 06:52:40;;;;;;;8.30;4.38;;;14.30;99.90;;;;;;5048069;28;20211;-67
2022/10/24 06:55:06;;;;;;;8.65;4.53;;;14.30;99.90;;;;;;5060561;28;20212;-67
2022/10/24 06:57:31;;;;;;;9.48;4.30;;;14.30;99.90;;;;;;5059926;28;20218;-67
2022/10/24 06:59:57;;;;;;;9.48;4.93;;;14.30;99.90;;;;;;5060979;28;20603;-69
2022/10/24 07:02:23;;;;;;;7.70;4.38;;;14.30;99.90;;;;;;5062797;28;20265;-70
2022/10/24 07:04:48;;;;;;;7.20;4.63;;;14.30;99.90;;;;;;5060180;28;20203;-70
2022/10/24 07:07:16;;;;;;;7.50;4.85;;;14.40;99.90;;;;;;5059381;28;20592;-69
2022/10/24 07:09:42;;;;;;;16.70;4.70;;;14.40;99.90;;;;;;5060152;28;20562;-70
2022/10/24 07:12:08;;;;;;;12.60;4.18;;;14.50;99.90;;;;;;5062959;28;20306;-70
2022/10/24 07:14:34;;;;;;;6.88;4.50;;;14.50;99.90;;;;;;5049039;28;20225;-70
2022/10/24 07:16:59;;;;;;;8.45;4.95;;;14.60;99.90;;;;;;5060976;28;20611;-70
2022/10/24 07:19:25;;;;;;;7.93;5.25;;;14.60;99.90;;;;;;5061599;28;20207;-70
2022/10/24 07:21:50;;;;;;;8.00;4.88;;;14.70;99.90;;;;;;5060127;28;20211;-70
2022/10/24 07:24:16;;;;;;;9.15;4.65;;;14.80;99.90;;;;;;5059195;28;20207;-70
2022/10/24 07:26:42;;;;;;;9.52;4.60;;;14.80;99.90;;;;;;5062190;28;20578;-69
2022/10/24 07:29:07;;;;;;;8.70;4.45;;;14.90;99.90;;;;;;5060183;28;20188;-70
2022/10/24 07:31:34;;;;;;;11.45;4.60;;;15.00;99.90;;;;;;5048084;28;20214;-68
2022/10/24 07:34:02;;;;;;;8.35;4.60;;;15.00;99.90;;;;;;5043546;28;20265;-70
2022/10/24 07:36:29;;;;;;;9.10;4.30;;;15.20;99.90;;;;;;5061777;28;20588;-70
2022/10/24 07:38:56;;;;;;;12.57;4.00;;;15.30;99.90;;;;;;5047482;28;20211;-69
2022/10/24 07:41:23;;;;;;;8.90;4.03;;;15.40;99.90;;;;;;5046092;28;20184;-69
2022/10/24 07:43:49;;;;;;;10.15;4.82;;;15.60;99.90;;;;;;5061479;28;20207;-69
2022/10/24 07:46:16;;;;;;;12.13;4.03;;;15.60;99.90;;;;;;5059991;28;20214;-70
2022/10/24 07:48:41;;;;;;;8.10;4.28;;;15.60;99.90;;;;;;5062676;28;20214;-69
2022/10/24 07:51:12;;;;;;;8.82;4.30;;;15.70;99.90;;;;;;5058664;28;20203;-69
2022/10/24 07:53:39;;;;;;;10.27;4.03;;;16.10;99.90;;;;;;5060142;28;20229;-70
2022/10/24 07:56:08;;;;;;;10.70;4.57;;;16.20;99.90;;;;;;5049051;28;20171;-70
2022/10/24 07:58:34;;;;;;;8.07;3.67;;;16.30;99.90;;;;;;5058670;28;20207;-69
2022/10/24 08:01:12;;;;;;;21.48;16.25;;;16.40;99.90;;;;;;5058841;28;20212;-69
2022/10/24 08:03:38;;;;;;;7.43;4.65;;;16.40;99.90;;;;;;5060289;28;20293;-69
2022/10/24 08:06:10;;;;;;;11.75;4.60;;;16.30;99.90;;;;;;5058332;28;20302;-69
2022/10/24 08:08:36;;;;;;;9.95;5.13;;;16.40;99.90;;;;;;5039785;28;20190;-69
2022/10/24 08:11:07;;;;;;;9.35;4.25;;;16.60;99.90;;;;;;5059490;28;20183;-70
2022/10/24 08:13:32;;;;;;;8.93;3.75;;;16.70;99.90;;;;;;5073445;23;20254;-70
2022/10/24 08:15:58;;;;;;;7.60;3.58;;;16.90;99.90;;;;;;5045152;28;20211;-70
2022/10/24 08:18:23;;;;;;;8.10;4.22;;;16.90;99.90;;;;;;5045737;28;20212;-70
2022/10/24 08:21:00;;;;;;;6.72;3.83;;;17.20;99.90;;;;;;5031379;28;20648;-71
2022/10/24 08:23:26;;;;;;;6.90;4.03;;;17.20;99.90;;;;;;5040652;28;20219;-71
2022/10/24 08:25:52;;;;;;;5.28;3.17;;;17.50;99.90;;;;;;5050572;28;20215;-70
2022/10/24 08:28:18;;;;;;;9.38;3.47;;;17.90;99.90;;;;;;5030105;28;20204;-71
2022/10/24 08:30:43;;;;;;;6.18;3.33;;;18.20;99.90;;;;;;5049623;28;20253;-71
2022/10/24 08:33:09;;;;;;;9.82;3.35;;;18.50;99.90;;;;;;5049629;28;20215;-71
2022/10/24 08:35:35;;;;;;;10.40;3.40;;;18.50;99.90;;;;;;5050398;28;20180;-70
2022/10/24 08:38:00;;;;;;;8.32;3.83;;;18.50;99.90;;;;;;5047924;28;20172;-70
2022/10/24 08:40:27;;;;;;;10.38;3.38;;;18.50;99.90;;;;;;5049263;28;20682;-70
2022/10/24 08:42:52;;;;;;;7.18;3.65;;;18.50;99.90;;;;;;5049715;28;20207;-70
2022/10/24 08:45:34;;;;;;;8.13;3.08;;;18.60;99.90;;;;;;5049607;28;20257;-70
2022/10/24 08:48:04;;;;;;;9.90;2.80;;;18.60;99.90;;;;;;5047042;28;20218;-70
2022/10/24 08:50:33;;;;;;;7.63;3.80;;;18.40;99.90;;;;;;5049236;28;20565;-70
2022/10/24 08:53:21;;;;;;;5.97;3.05;;;18.40;99.90;;;;;;5049776;28;20179;-71
2022/10/24 08:55:52;;;;;;;9.02;3.30;;;18.60;99.90;;;;;;5048265;28;20214;-71
2022/10/24 08:58:24;;;;;;;9.55;3.00;;;18.40;99.90;;;;;;5053610;28;20326;-70
2022/10/24 09:00:52;;;;;;;8.63;2.95;;;18.40;99.90;;;;;;5053339;28;20207;-70
2022/10/24 09:03:26;;;;;;;8.57;3.38;;;18.50;99.90;;;;;;5033927;28;20302;-70
2022/10/24 09:05:56;;;;;;;9.65;3.63;;;18.50;99.90;;;;;;5053755;28;20310;-70
2022/10/24 09:08:50;;;;;;;9.50;3.28;;;18.40;99.90;;;;;;5051105;28;20254;-70
2022/10/24 09:11:25;;;;;;;8.98;3.28;;;18.30;99.90;;;;;;5053586;28;20796;-70
2022/10/24 09:13:51;;;;;;;7.95;3.75;;;18.20;99.90;;;;;;5052871;28;20233;-70
2022/10/24 09:16:21;;;;;;;12.43;3.38;;;18.00;99.90;;;;;;5043255;28;20207;-70
2022/10/24 09:18:50;;;;;;;13.45;3.72;;;18.00;99.90;;;;;;5033403;28;20216;-70
2022/10/24 09:21:16;;;;;;;7.45;3.28;;;18.00;99.90;;;;;;5053142;28;20204;-70
2022/10/24 09:23:43;;;;;;;12.95;3.42;;;18.10;99.90;;;;;;5052846;28;20203;-70
2022/10/24 09:26:23;;;;;;;8.77;3.05;;;18.20;99.90;;;;;;5053181;28;20200;-70
2022/10/24 09:28:48;;;;;;;7.10;3.17;;;18.30;99.90;;;;;;5053167;28;20207;-70
2022/10/24 09:31:21;;;;;;;10.32;3.60;;;18.30;99.90;;;;;;5042169;28;20280;-70
2022/10/24 09:33:48;;;;;;;7.93;3.88;;;18.30;99.90;;;;;;5049402;28;20215;-70
2022/10/24 09:36:16;;;;;;;10.25;3.55;;;18.40;99.90;;;;;;5053033;28;20205;-70
2022/10/24 09:38:43;;;;;;;8.43;3.05;;;18.40;99.90;;;;;;5033250;28;20564;-70
2022/10/24 09:41:22;;;;;;;7.68;2.85;;;18.40;99.90;;;;;;5053159;28;20176;-70
2022/10/24 09:44:01;;;;;;;7.88;3.15;;;18.40;99.90;;;;;;5049595;28;20662;-70
2022/10/24 09:46:43;;;;;;;8.75;3.10;;;18.50;99.90;;;;;;5053087;28;20592;-70
2022/10/24 09:49:15;;;;;;;8.25;3.25;;;18.30;99.90;;;;;;5051384;28;20230;-70
2022/10/24 09:52:02;;;;;;;5.88;2.88;;;18.30;99.90;;;;;;5052746;28;20219;-70
2022/10/24 09:54:30;;;;;;;9.70;3.00;;;18.40;99.90;;;;;;5051943;28;20215;-70
2022/10/24 09:57:09;;;;;;;5.50;3.05;;;18.60;99.90;;;;;;5049668;28;20257;-70
2022/10/24 09:59:58;;;;;;;8.48;3.45;;;18.60;99.90;;;;;;5044880;28;20273;-70
2022/10/24 10:02:33;;;;;;;10.52;3.50;;;18.80;99.90;;;;;;5051131;28;20184;-73
2022/10/24 10:05:02;;;;;;;12.05;3.50;;;18.80;99.90;;;;;;5050552;28;20274;-72
2022/10/24 10:07:34;;;;;;;8.63;3.10;;;18.70;99.90;;;;;;5051793;28;20247;-70
2022/10/24 10:10:04;;;;;;;11.88;2.95;;;18.70;99.90;;;;;;5031938;28;20783;-70
2022/10/24 10:12:35;;;;;;;10.63;3.63;;;18.70;99.90;;;;;;5052501;28;20223;-70
2022/10/24 10:15:23;;;;;;;9.75;3.10;;;18.70;99.90;;;;;;5052286;28;20223;-72
2022/10/24 10:17:52;;;;;;;9.93;3.20;;;18.80;99.90;;;;;;5025926;28;20716;-70
2022/10/24 10:20:32;;;;;;;5.85;3.42;;;18.80;99.90;;;;;;5050578;28;20183;-70
2022/10/24 10:23:24;;;;;;;5.57;2.38;;;18.90;99.90;;;;;;5049773;28;20207;-70
2022/10/24 10:26:11;;;;;;;6.75;2.85;;;19.00;99.90;;;;;;5049458;28;20211;-71
2022/10/24 10:28:49;;;;;;;8.38;2.90;;;19.10;99.90;;;;;;5048423;28;20790;-71
2022/10/24 10:31:17;;;;;;;14.15;3.50;;;19.10;99.90;;;;;;5051962;28;20207;-71
2022/10/24 10:34:04;;;;;;;5.75;2.42;;;19.00;99.90;;;;;;5052067;28;20212;-71
2022/10/24 10:36:36;;;;;;;13.68;3.58;;;19.00;99.90;;;;;;5051632;28;20210;-69
2022/10/24 10:39:25;;;;;;;7.93;3.30;;;19.00;99.90;;;;;;5049434;28;20285;-71
2022/10/24 10:42:15;;;;;;;11.43;3.10;;;19.00;99.90;;;;;;5048563;28;20220;-71
2022/10/24 10:45:05;;;;;;;6.28;2.95;;;19.00;99.90;;;;;;5048299;28;20207;-71
2022/10/24 10:47:53;;;;;;;9.00;2.75;;;18.90;99.90;;;;;;5048335;28;20203;-70
2022/10/24 10:50:27;;;;;;;8.52;2.78;;;18.80;99.90;;;;;;5048309;28;20172;-71
2022/10/24 10:52:58;;;;;;;9.88;3.10;;;18.80;99.90;;;;;;5051940;28;20648;-70
2022/10/24 10:55:36;;;;;;;15.35;3.22;;;18.80;99.90;;;;;;5051408;28;20211;-71
2022/10/24 10:58:17;;;;;;;6.90;2.85;;;18.80;99.90;;;;;;5049611;28;20227;-70
2022/10/24 11:01:10;;;;;;;10.52;2.45;;;18.80;99.90;;;;;;5047854;28;20207;-70
2022/10/24 11:03:57;;;;;;;11.75;2.70;;;18.80;99.90;;;;;;5048289;28;20771;-70
2022/10/24 11:06:37;;;;;;;8.15;2.42;;;18.80;99.90;;;;;;5051659;28;20227;-71
2022/10/24 11:09:02;;;;;;;8.73;2.70;;;18.80;99.90;;;;;;5051425;28;20211;-71
2022/10/24 11:11:33;;;;;;;11.23;3.33;;;18.80;99.90;;;;;;5051138;28;20182;-71
2022/10/24 11:14:37;;;;;;;11.38;2.92;;;18.90;99.90;;;;;;5049009;28;20208;-71
2022/10/24 11:17:25;;;;;;;7.15;2.47;;;18.90;99.90;;;;;;4970557;28;20252;-71
2022/10/24 11:20:18;;;;;;;6.82;2.78;;;18.90;99.90;;;;;;5043296;28;20211;-71
2022/10/24 11:23:08;;;;;;;9.02;3.08;;;19.10;99.90;;;;;;5031825;28;20215;-71
2022/10/24 11:25:47;;;;;;;8.38;2.67;;;19.10;99.90;;;;;;5048508;28;20215;-70
2022/10/24 11:28:43;;;;;;;8.30;3.05;;;19.10;99.90;;;;;;5028115;28;20207;-71
2022/10/24 11:31:14;;;;;;;5.88;2.63;;;19.00;99.90;;;;;;5049332;28;20694;-71
2022/10/24 11:34:14;;;;;;;7.68;2.78;;;19.10;99.90;;;;;;5026686;28;20216;-71
2022/10/24 11:36:50;;;;;;;14.15;3.00;;;19.10;99.90;;;;;;5047129;28;20301;-71
2022/10/24 11:39:25;;;;;;;8.95;2.60;;;19.00;99.90;;;;;;5050370;28;20207;-70
2022/10/24 11:42:19;;;;;;;12.60;2.95;;;19.00;99.90;;;;;;5047520;28;20253;-71
2022/10/24 11:45:03;;;;;;;11.57;2.80;;;19.00;99.90;;;;;;5047907;28;20298;-71
2022/10/24 11:47:55;;;;;;;11.05;2.92;;;19.10;99.90;;;;;;5047211;28;20199;-71
2022/10/24 11:50:47;;;;;;;9.43;2.83;;;19.00;99.90;;;;;;5047551;28;20190;-71
2022/10/24 11:53:32;;;;;;;13.32;2.70;;;19.00;99.90;;;;;;5032355;28;20212;-70
2022/10/24 11:56:22;;;;;;;6.00;2.53;;;19.10;99.90;;;;;;5050944;28;20692;-71
2022/10/24 11:59:00;;;;;;;9.25;2.70;;;19.00;99.90;;;;;;5050449;28;20222;-70
2022/10/24 12:01:57;;;;;;;8.98;2.35;;;19.00;99.90;;;;;;5048639;28;20560;-71
2022/10/24 12:04:37;;;;;;;11.85;2.75;;;19.00;99.90;;;;;;5049805;28;20251;-71
2022/10/24 12:07:34;;;;;;;9.95;2.58;;;19.10;99.90;;;;;;5048099;28;20258;-70
2022/10/24 12:10:33;;;;;;;9.93;2.60;;;19.10;99.90;;;;;;5048481;28;20207;-71
2022/10/24 12:13:10;;;;;;;8.75;2.50;;;19.10;99.90;;;;;;5047407;28;20210;-71
2022/10/24 12:15:55;;;;;;;6.18;2.40;;;19.10;99.90;;;;;;5025160;28;20216;-70
2022/10/24 12:18:35;;;;;;;5.90;2.45;;;19.00;99.90;;;;;;5048009;28;20196;-70
2022/10/24 12:21:08;;;;;;;10.30;2.65;;;19.10;99.90;;;;;;5029463;28;20214;-71
2022/10/24 12:23:34;;;;;;;9.73;2.50;;;19.10;99.90;;;;;;5049887;28;20199;-71
2022/10/24 12:26:05;;;;;;;11.10;3.00;;;19.20;99.90;;;;;;5026380;28;20202;-70
2022/10/24 12:28:31;;;;;;;6.35;2.45;;;19.20;99.90;;;;;;5050058;28;20207;-70
2022/10/24 12:31:11;;;;;;;9.40;2.30;;;19.20;99.90;;;;;;5049093;28;20376;-70
2022/10/24 12:33:37;;;;;;;8.95;2.35;;;19.30;99.90;;;;;;5049591;28;20226;-70
2022/10/24 12:36:03;;;;;;;8.73;2.70;;;19.20;99.90;;;;;;5049720;28;20211;-70
2022/10/24 12:38:28;;;;;;;5.43;2.50;;;19.10;99.90;;;;;;5046502;28;20658;-70
2022/10/24 12:40:56;;;;;;;9.43;2.47;;;19.10;99.90;;;;;;5049697;28;20342;-70
2022/10/24 12:43:36;;;;;;;7.22;2.53;;;19.20;99.90;;;;;;5049493;28;20211;-71
2022/10/24 12:46:14;;;;;;;6.63;2.05;;;19.20;99.90;;;;;;5049380;28;20298;-70
2022/10/24 12:49:08;;;;;;;9.18;2.65;;;19.20;99.90;;;;;;5049980;28;20272;-70
2022/10/24 12:51:35;;;;;;;9.10;2.58;;;19.20;99.90;;;;;;5002193;28;20250;-71
2022/10/24 12:54:10;;;;;;;9.18;2.72;;;19.20;99.90;;;;;;5049425;28;20212;-72
2022/10/24 12:56:48;;;;;;;6.65;2.60;;;19.30;99.90;;;;;;5047145;28;20189;-71
2022/10/24 12:59:43;;;;;;;9.13;2.53;;;19.40;99.90;;;;;;5050080;28;20254;-70
2022/10/24 13:02:12;;;;;;;10.07;2.78;;;19.50;99.90;;;;;;5038632;28;20253;-70
2022/10/24 13:05:09;;;;;;;10.52;3.47;;;19.60;99.90;;;;;;5049350;28;20235;-70
2022/10/24 13:08:06;;;;;;;5.97;2.50;;;19.70;99.90;;;;;;5048678;28;20306;-71